createdAt,value
2022-09-06T00:01:43.105Z,59.83
2022-09-06T00:04:15.017Z,60.06
2022-09-06T00:06:42.510Z,60.05
2022-09-06T00:09:09.637Z,59.69
2022-09-06T00:11:37.084Z,59.73
2022-09-06T00:14:04.465Z,59.94
2022-09-06T00:16:31.635Z,59.61
2022-09-06T00:18:58.899Z,59.79
2022-09-06T00:21:29.928Z,60.31
2022-09-06T00:23:57.577Z,59.96
2022-09-06T00:26:24.902Z,59.79
2022-09-06T00:28:52.174Z,60.47
2022-09-06T00:31:23.068Z,59.56
2022-09-06T00:33:51.183Z,59.88
2022-09-06T00:36:19.048Z,60.21
2022-09-06T00:38:46.603Z,59.71
2022-09-06T00:41:15.720Z,59.87
2022-09-06T00:43:43.547Z,60.26
2022-09-06T00:46:16.084Z,59.90
2022-09-06T00:48:45.146Z,60.12
2022-09-06T00:51:15.618Z,59.91
2022-09-06T00:53:42.778Z,59.77
2022-09-06T00:56:10.148Z,59.82
2022-09-06T00:58:37.680Z,60.35
2022-09-06T01:01:05.529Z,60.56
2022-09-06T01:03:33.147Z,60.35
2022-09-06T01:06:24.942Z,60.40
2022-09-06T01:09:16.703Z,60.46
2022-09-06T01:11:43.793Z,60.76
2022-09-06T01:14:54.983Z,60.70
2022-09-06T01:17:54.953Z,60.55
2022-09-06T01:20:43.553Z,61.28
2022-09-06T01:23:25.745Z,61.17
2022-09-06T01:26:14.016Z,61.51
2022-09-06T01:28:49.362Z,60.99
2022-09-06T01:31:31.577Z,60.77
2022-09-06T01:34:04.511Z,61.48
2022-09-06T01:37:10.017Z,61.47
2022-09-06T01:39:39.756Z,61.12
2022-09-06T01:42:12.501Z,61.37
2022-09-06T01:44:55.621Z,61.55
2022-09-06T01:47:22.810Z,61.40
2022-09-06T01:49:52.552Z,61.24
2022-09-06T01:52:24.211Z,61.30
2022-09-06T01:55:10.964Z,61.29
2022-09-06T01:58:24.797Z,61.88
2022-09-06T02:01:03.265Z,61.34
2022-09-06T02:03:35.704Z,61.12
2022-09-06T02:06:13.523Z,62.07
2022-09-06T02:08:46.721Z,61.28
2022-09-06T02:11:15.982Z,61.54
2022-09-06T02:13:54.454Z,61.82
2022-09-06T02:16:25.939Z,61.43
2022-09-06T02:19:00.144Z,62.05
2022-09-06T02:21:32.933Z,61.36
2022-09-06T02:24:03.633Z,61.72
2022-09-06T02:26:34.766Z,61.81
2022-09-06T02:29:02.519Z,61.73
2022-09-06T02:31:34.863Z,62.20
2022-09-06T02:34:03.131Z,61.76
2022-09-06T02:36:32.384Z,61.59
2022-09-06T02:39:02.537Z,61.47
2022-09-06T02:41:31.333Z,61.48
2022-09-06T02:43:58.807Z,61.85
2022-09-06T02:46:26.215Z,61.96
2022-09-06T02:48:53.496Z,61.84
2022-09-06T02:51:20.990Z,61.51
2022-09-06T02:53:48.105Z,61.92
2022-09-06T02:56:15.432Z,61.91
2022-09-06T02:58:42.709Z,62.34
2022-09-06T03:01:09.940Z,62.74
2022-09-06T03:03:37.459Z,62.90
2022-09-06T03:06:04.797Z,62.38
2022-09-06T03:08:34.386Z,62.25
2022-09-06T03:11:01.571Z,62.34
2022-09-06T03:13:28.892Z,62.75
2022-09-06T03:15:58.821Z,62.75
2022-09-06T03:18:28.016Z,63.00
2022-09-06T03:20:56.673Z,62.98
2022-09-06T03:23:26.200Z,63.56
2022-09-06T03:25:53.705Z,63.07
2022-09-06T03:28:21.965Z,63.22
2022-09-06T03:30:50.939Z,63.83
2022-09-06T03:33:19.266Z,63.51
2022-09-06T03:36:05.004Z,63.78
2022-09-06T03:38:32.177Z,63.76
2022-09-06T03:40:59.508Z,63.28
2022-09-06T03:43:27.831Z,63.60
2022-09-06T03:46:00.354Z,63.28
2022-09-06T03:48:29.378Z,63.31
2022-09-06T03:50:58.741Z,63.63
2022-09-06T03:53:28.502Z,63.65
2022-09-06T03:55:58.448Z,63.58
2022-09-06T03:58:30.027Z,63.78
2022-09-06T04:01:11.719Z,64.15
2022-09-06T04:03:39.898Z,64.24
2022-09-06T04:06:07.638Z,64.13
2022-09-06T04:08:35.863Z,64.14
2022-09-06T04:11:03.763Z,63.70
2022-09-06T04:13:31.667Z,64.05
2022-09-06T04:15:59.293Z,64.19
2022-09-06T04:18:27.231Z,64.43
2022-09-06T04:20:58.876Z,63.89
2022-09-06T04:23:28.431Z,63.96
2022-09-06T04:25:58.070Z,63.90
2022-09-06T04:28:27.084Z,63.60
2022-09-06T04:30:58.863Z,63.69
2022-09-06T04:33:29.749Z,63.93
2022-09-06T04:35:59.454Z,63.77
2022-09-06T04:38:28.665Z,64.32
2022-09-06T04:40:56.228Z,64.61
2022-09-06T04:43:23.817Z,64.50
2022-09-06T04:45:51.004Z,64.79
2022-09-06T04:48:18.250Z,64.59
2022-09-06T04:50:45.492Z,65.19
2022-09-06T04:53:12.754Z,64.62
2022-09-06T04:55:39.946Z,64.38
2022-09-06T04:58:07.337Z,64.59
2022-09-06T05:00:36.104Z,64.95
2022-09-06T05:03:03.254Z,64.16
2022-09-06T05:05:30.844Z,64.93
2022-09-06T05:07:57.956Z,64.28
2022-09-06T05:10:26.267Z,64.28
2022-09-06T05:12:54.837Z,64.12
2022-09-06T05:15:23.945Z,64.11
2022-09-06T05:17:51.147Z,64.24
2022-09-06T05:20:18.742Z,63.80
2022-09-06T05:22:54.460Z,64.15
2022-09-06T05:25:21.872Z,63.56
2022-09-06T05:27:49.074Z,63.69
2022-09-06T05:30:18.294Z,63.16
2022-09-06T05:32:45.504Z,63.19
2022-09-06T05:35:12.714Z,62.52
2022-09-06T05:37:39.854Z,62.78
2022-09-06T05:40:07.663Z,63.01
2022-09-06T05:42:34.984Z,62.73
2022-09-06T05:45:02.603Z,62.36
2022-09-06T05:47:31.470Z,61.62
2022-09-06T05:49:58.617Z,62.06
2022-09-06T05:52:25.692Z,61.65
2022-09-06T05:54:55.938Z,61.90
2022-09-06T05:57:23.107Z,60.40
2022-09-06T05:59:50.280Z,61.24
2022-09-06T06:02:17.535Z,60.24
2022-09-06T06:04:44.681Z,59.79
2022-09-06T06:07:11.949Z,59.28
2022-09-06T06:09:39.814Z,59.04
2022-09-06T06:12:07.693Z,58.51
2022-09-06T06:14:35.056Z,58.22
2022-09-06T06:17:02.881Z,57.99
2022-09-06T06:19:30.274Z,57.79
2022-09-06T06:21:58.665Z,57.81
2022-09-06T06:24:26.216Z,57.20
2022-09-06T06:26:53.535Z,56.59
2022-09-06T06:29:20.774Z,56.09
2022-09-06T06:31:48.040Z,56.12
2022-09-06T06:34:16.695Z,55.64
2022-09-06T06:36:44.593Z,55.39
2022-09-06T06:39:11.746Z,54.90
2022-09-06T06:41:39.106Z,53.84
2022-09-06T06:44:27.473Z,53.80
2022-09-06T06:46:54.700Z,53.45
2022-09-06T06:49:21.857Z,53.59
2022-09-06T06:51:48.945Z,53.42
2022-09-06T06:54:16.071Z,53.63
2022-09-06T06:56:45.027Z,52.63
2022-09-06T06:59:12.293Z,52.52
2022-09-06T07:01:39.823Z,51.92
2022-09-06T07:04:08.968Z,51.90
2022-09-06T07:12:24.756Z,51.17
2022-09-06T07:14:52.048Z,50.52
2022-09-06T07:17:19.389Z,49.96
2022-09-06T07:22:33.866Z,49.63
2022-09-06T07:25:01.000Z,49.62
2022-09-06T07:30:16.256Z,48.58
2022-09-06T07:32:43.471Z,47.83
2022-09-06T07:35:12.563Z,47.49
2022-09-06T07:37:39.749Z,47.46
2022-09-06T07:40:07.450Z,46.99
2022-09-06T07:42:36.380Z,46.60
2022-09-06T07:45:05.472Z,47.15
2022-09-06T07:53:10.910Z,45.72
2022-09-06T07:55:43.420Z,44.95
2022-09-06T07:58:11.302Z,44.31
2022-09-06T08:00:41.313Z,43.62
2022-09-06T08:03:08.750Z,43.76
2022-09-06T08:11:10.588Z,42.62
2022-09-06T08:13:38.591Z,41.91
2022-09-06T08:16:08.438Z,41.46
2022-09-06T08:18:37.226Z,41.45
2022-09-06T08:21:12.646Z,41.39
2022-09-06T08:23:46.891Z,41.77
2022-09-06T08:26:14.426Z,40.57
2022-09-06T08:28:41.862Z,40.81
2022-09-06T08:31:14.626Z,40.84
2022-09-06T08:33:43.211Z,40.93
2022-09-06T08:36:11.667Z,40.38
2022-09-06T08:38:38.780Z,40.02
2022-09-06T08:41:14.899Z,40.06
2022-09-06T08:47:08.107Z,39.18
2022-09-06T08:50:02.953Z,39.31
2022-09-06T08:53:16.081Z,38.61
2022-09-06T08:55:56.006Z,38.91
2022-09-06T08:58:38.185Z,38.83
2022-09-06T09:01:11.811Z,38.12
2022-09-06T09:03:41.418Z,38.03
2022-09-06T09:06:10.493Z,37.90
2022-09-06T09:09:07.386Z,38.11
2022-09-06T09:11:36.489Z,37.81
2022-09-06T09:14:21.380Z,37.52
2022-09-06T09:16:53.528Z,37.40
2022-09-06T09:19:21.172Z,37.10
2022-09-06T09:21:48.629Z,36.90
2022-09-06T09:24:16.233Z,37.68
2022-09-06T09:27:04.504Z,38.07
2022-09-06T09:29:36.165Z,37.12
2022-09-06T09:32:03.738Z,36.42
2022-09-06T09:34:31.078Z,36.60
2022-09-06T09:40:31.096Z,35.71
2022-09-06T09:43:29.870Z,35.79
2022-09-06T09:46:13.560Z,35.38
2022-09-06T09:49:01.581Z,35.79
2022-09-06T09:51:29.945Z,35.66
2022-09-06T09:54:00.109Z,35.92
2022-09-06T09:56:38.666Z,35.58
2022-09-06T09:59:24.034Z,35.12
2022-09-06T10:01:56.060Z,34.72
2022-09-06T10:07:13.732Z,34.80
2022-09-06T10:09:50.812Z,34.92
2022-09-06T10:12:33.303Z,34.83
2022-09-06T10:15:02.434Z,34.83
2022-09-06T10:17:36.787Z,35.25
2022-09-06T10:20:12.863Z,34.83
2022-09-06T10:23:05.436Z,35.02
2022-09-06T10:25:49.819Z,34.89
2022-09-06T10:28:30.558Z,34.38
2022-09-06T10:31:24.456Z,34.70
2022-09-06T10:33:54.540Z,34.75
2022-09-06T10:36:37.307Z,34.31
2022-09-06T10:39:43.373Z,34.15
2022-09-06T10:42:20.013Z,34.10
2022-09-06T10:45:08.627Z,33.96
2022-09-06T10:48:04.906Z,33.68
2022-09-06T10:50:41.737Z,33.87
2022-09-06T10:53:19.194Z,34.33
2022-09-06T10:56:03.063Z,33.82
2022-09-06T11:01:37.778Z,33.96
2022-09-06T11:04:12.689Z,33.02
2022-09-06T11:06:53.831Z,33.05
2022-09-06T11:09:33.010Z,33.33
2022-09-06T11:12:26.513Z,33.11
2022-09-06T11:14:54.118Z,33.00
2022-09-06T11:17:38.556Z,32.77
2022-09-06T11:20:15.838Z,33.29
2022-09-06T11:23:04.815Z,33.48
2022-09-06T11:25:54.437Z,33.20
2022-09-06T11:28:49.586Z,33.30
2022-09-06T11:34:38.745Z,33.08
2022-09-06T11:37:08.952Z,33.06
2022-09-06T11:43:01.272Z,33.22
2022-09-06T11:45:53.077Z,33.33
2022-09-06T11:48:26.765Z,32.60
2022-09-06T11:50:54.138Z,32.89
2022-09-06T11:53:23.721Z,33.42
2022-09-06T11:56:12.634Z,33.51
2022-09-06T11:58:42.772Z,33.84
2022-09-06T12:01:12.916Z,34.45
2022-09-06T12:04:05.979Z,34.24
2022-09-06T12:06:43.026Z,34.74
2022-09-06T12:09:36.742Z,35.04
2022-09-06T12:12:04.990Z,35.24
2022-09-06T12:14:42.897Z,34.84
2022-09-06T12:17:10.071Z,34.89
2022-09-06T12:19:55.156Z,34.41
2022-09-06T12:22:28.303Z,34.16
2022-09-06T12:25:15.748Z,34.49
2022-09-06T12:28:01.896Z,34.74
2022-09-06T12:30:32.024Z,34.45
2022-09-06T12:33:01.313Z,34.54
2022-09-06T12:38:24.712Z,34.80
2022-09-06T12:40:58.620Z,34.60
2022-09-06T12:43:27.207Z,35.38
2022-09-06T12:45:54.378Z,35.66
2022-09-06T12:48:31.425Z,35.94
2022-09-06T12:51:07.498Z,35.55
2022-09-06T12:53:35.169Z,35.43
2022-09-06T12:56:05.675Z,35.28
2022-09-06T12:58:33.729Z,35.49
2022-09-06T13:01:12.796Z,35.08
2022-09-06T13:03:50.818Z,35.64
2022-09-06T13:06:26.209Z,35.65
2022-09-06T13:08:59.734Z,35.80
2022-09-06T13:11:32.794Z,35.99
2022-09-06T13:14:02.155Z,35.88
2022-09-06T13:16:37.524Z,36.15
2022-09-06T13:19:14.431Z,35.62
2022-09-06T13:21:43.397Z,35.66
2022-09-06T13:24:28.613Z,35.64
2022-09-06T13:26:55.885Z,35.26
2022-09-06T13:29:33.357Z,35.45
2022-09-06T13:32:03.897Z,35.09
2022-09-06T13:34:32.956Z,35.32
2022-09-06T13:37:07.477Z,35.48
2022-09-06T13:39:44.271Z,35.82
2022-09-06T13:42:25.825Z,35.71
2022-09-06T13:44:53.069Z,35.63
2022-09-06T13:47:20.343Z,35.70
2022-09-06T13:49:47.545Z,35.62
2022-09-06T13:52:15.694Z,35.14
2022-09-06T13:54:42.822Z,34.88
2022-09-06T13:57:10.284Z,34.85
2022-09-06T13:59:37.437Z,35.08
2022-09-06T14:02:10.040Z,35.85
2022-09-06T14:04:37.397Z,35.74
2022-09-06T14:07:05.516Z,35.89
2022-09-06T14:09:33.497Z,35.95
2022-09-06T14:12:01.225Z,35.85
2022-09-06T14:14:28.307Z,35.91
2022-09-06T14:16:55.705Z,36.09
2022-09-06T14:19:23.433Z,35.82
2022-09-06T14:21:50.630Z,36.03
2022-09-06T14:24:18.042Z,35.44
2022-09-06T14:26:45.178Z,35.60
2022-09-06T14:29:12.436Z,35.60
2022-09-06T14:31:40.033Z,35.82
2022-09-06T14:34:07.377Z,36.15
2022-09-06T14:36:34.807Z,36.03
2022-09-06T14:39:03.001Z,36.29
2022-09-06T14:41:30.402Z,36.08
2022-09-06T14:43:59.357Z,35.79
2022-09-06T14:46:28.359Z,35.79
2022-09-06T14:49:00.126Z,35.63
2022-09-06T14:51:27.429Z,35.58
2022-09-06T14:54:02.634Z,35.69
2022-09-06T14:56:30.610Z,36.06
2022-09-06T14:59:00.186Z,36.12
2022-09-06T15:01:37.998Z,36.01
2022-09-06T15:04:08.536Z,36.26
2022-09-06T15:06:37.228Z,36.59
2022-09-06T15:09:06.782Z,36.50
2022-09-06T15:11:36.463Z,36.90
2022-09-06T15:14:12.305Z,36.96
2022-09-06T15:16:39.530Z,36.70
2022-09-06T15:19:08.022Z,37.08
2022-09-06T15:21:35.347Z,36.95
2022-09-06T15:24:04.002Z,36.76
2022-09-06T15:26:33.722Z,36.83
2022-09-06T15:29:02.650Z,36.97
2022-09-06T15:31:29.896Z,36.96
2022-09-06T15:33:58.324Z,37.05
2022-09-06T15:36:25.520Z,37.20
2022-09-06T15:38:54.225Z,37.18
2022-09-06T15:41:25.142Z,37.48
2022-09-06T15:43:57.456Z,37.66
2022-09-06T15:46:38.625Z,37.50
2022-09-06T15:49:10.624Z,37.54
2022-09-06T15:51:39.889Z,37.14
2022-09-06T15:54:07.584Z,37.53
2022-09-06T15:56:34.834Z,37.57
2022-09-06T15:59:02.054Z,37.68
2022-09-06T16:01:29.126Z,37.87
2022-09-06T16:04:05.820Z,37.80
2022-09-06T16:06:42.763Z,37.71
2022-09-06T16:09:14.451Z,37.86
2022-09-06T16:11:42.386Z,37.96
2022-09-06T16:14:12.659Z,38.36
2022-09-06T16:16:40.653Z,38.23
2022-09-06T16:19:09.855Z,38.40
2022-09-06T16:21:39.337Z,38.71
2022-09-06T16:24:09.207Z,38.59
2022-09-06T16:26:39.351Z,38.53
2022-09-06T16:29:07.919Z,38.86
2022-09-06T16:31:40.034Z,38.96
2022-09-06T16:34:08.734Z,39.04
2022-09-06T16:36:35.823Z,38.90
2022-09-06T16:39:04.135Z,39.05
2022-09-06T16:41:45.953Z,39.06
2022-09-06T16:44:19.182Z,39.20
2022-09-06T16:46:48.387Z,39.50
2022-09-06T16:49:17.583Z,39.61
2022-09-06T16:51:45.965Z,39.68
2022-09-06T16:54:14.834Z,39.86
2022-09-06T16:56:42.006Z,40.01
2022-09-06T16:59:10.763Z,40.05
2022-09-06T17:01:42.044Z,40.36
2022-09-06T17:04:10.173Z,40.47
2022-09-06T17:06:44.678Z,40.62
2022-09-06T17:09:14.273Z,40.63
2022-09-06T17:11:41.562Z,41.02
2022-09-06T17:14:08.858Z,41.28
2022-09-06T17:16:54.745Z,41.28
2022-09-06T17:19:22.545Z,41.38
2022-09-06T17:21:49.633Z,41.71
2022-09-06T17:24:16.803Z,41.63
2022-09-06T17:26:43.856Z,41.80
2022-09-06T17:29:11.313Z,42.05
2022-09-06T17:31:38.929Z,42.04
2022-09-06T17:34:07.949Z,42.08
2022-09-06T17:36:36.652Z,42.19
2022-09-06T17:39:09.614Z,42.56
2022-09-06T17:41:39.563Z,42.51
2022-09-06T17:44:11.209Z,42.49
2022-09-06T17:46:47.677Z,42.75
2022-09-06T17:49:19.779Z,43.06
2022-09-06T17:51:47.627Z,42.98
2022-09-06T17:54:15.396Z,43.42
2022-09-06T17:56:42.835Z,43.27
2022-09-06T17:59:14.351Z,43.56
2022-09-06T18:01:43.795Z,43.40
2022-09-06T18:04:12.667Z,44.06
2022-09-06T18:06:42.186Z,43.73
2022-09-06T18:09:15.791Z,44.25
2022-09-06T18:11:46.148Z,44.19
2022-09-06T18:14:17.918Z,44.24
2022-09-06T18:16:47.566Z,44.29
2022-09-06T18:19:16.307Z,44.26
2022-09-06T18:21:43.839Z,44.25
2022-09-06T18:24:14.030Z,44.28
2022-09-06T18:26:42.325Z,44.59
2022-09-06T18:29:15.130Z,44.69
2022-09-06T18:31:43.037Z,45.06
2022-09-06T18:34:10.379Z,45.26
2022-09-06T18:36:39.126Z,45.17
2022-09-06T18:39:07.026Z,45.05
2022-09-06T18:41:53.347Z,45.27
2022-09-06T18:44:21.545Z,45.34
2022-09-06T18:46:49.285Z,45.60
2022-09-06T18:49:17.126Z,45.59
2022-09-06T18:51:45.893Z,45.68
2022-09-06T18:54:13.942Z,45.78
2022-09-06T18:56:42.226Z,45.78
2022-09-06T18:59:11.003Z,45.77
2022-09-06T19:01:38.653Z,46.02
2022-09-06T19:04:07.338Z,46.20
2022-09-06T19:06:36.436Z,46.27
2022-09-06T19:09:07.439Z,46.71
2022-09-06T19:11:35.134Z,46.32
2022-09-06T19:14:02.376Z,46.33
2022-09-06T19:16:31.631Z,46.73
2022-09-06T19:19:07.298Z,46.85
2022-09-06T19:21:40.774Z,46.66
2022-09-06T19:24:10.477Z,46.86
2022-09-06T19:26:39.691Z,47.04
2022-09-06T19:29:11.490Z,47.04
2022-09-06T19:31:39.296Z,47.13
2022-09-06T19:34:07.654Z,47.19
2022-09-06T19:36:34.996Z,47.21
2022-09-06T19:39:06.404Z,47.38
2022-09-06T19:41:38.919Z,47.49
2022-09-06T19:44:08.876Z,47.88
2022-09-06T19:46:37.448Z,47.69
2022-09-06T19:49:05.509Z,47.87
2022-09-06T19:51:33.357Z,47.97
2022-09-06T19:54:00.610Z,48.11
2022-09-06T19:56:33.895Z,48.17
2022-09-06T19:59:06.579Z,48.12
2022-09-06T20:01:36.092Z,48.49
2022-09-06T20:04:07.202Z,48.55
2022-09-06T20:06:35.151Z,48.44
2022-09-06T20:09:03.938Z,48.93
2022-09-06T20:11:33.304Z,48.83
2022-09-06T20:14:01.348Z,48.89
2022-09-06T20:16:28.955Z,48.98
2022-09-06T20:18:56.996Z,48.96
2022-09-06T20:21:24.227Z,48.85
2022-09-06T20:23:53.052Z,48.92
2022-09-06T20:26:23.098Z,49.25
2022-09-06T20:29:10.546Z,49.16
2022-09-06T20:31:38.535Z,49.21
2022-09-06T20:34:06.702Z,49.25
2022-09-06T20:36:33.956Z,49.07
2022-09-06T20:39:02.316Z,49.06
2022-09-06T20:41:29.863Z,49.12
2022-09-06T20:43:58.913Z,49.45
2022-09-06T20:46:31.244Z,49.86
2022-09-06T20:49:04.562Z,49.67
2022-09-06T20:51:33.655Z,49.83
2022-09-06T20:54:02.734Z,49.92
2022-09-06T20:56:35.437Z,50.10
2022-09-06T20:59:06.524Z,49.95
2022-09-06T21:01:36.355Z,50.08
2022-09-06T21:04:06.400Z,50.07
2022-09-06T21:06:35.910Z,50.26
2022-09-06T21:09:05.406Z,50.49
2022-09-06T21:11:32.661Z,50.48
2022-09-06T21:13:59.813Z,50.69
2022-09-06T21:16:29.245Z,50.57
2022-09-06T21:18:58.458Z,50.64
2022-09-06T21:21:27.104Z,50.83
2022-09-06T21:23:54.416Z,50.81
2022-09-06T21:26:22.659Z,51.05
2022-09-06T21:28:50.281Z,50.97
2022-09-06T21:31:23.191Z,51.20
2022-09-06T21:33:55.658Z,51.23
2022-09-06T21:36:34.198Z,51.52
2022-09-06T21:39:03.697Z,51.15
2022-09-06T21:41:31.820Z,51.04
2022-09-06T21:44:00.674Z,51.22
2022-09-06T21:46:33.483Z,51.31
2022-09-06T21:49:04.417Z,51.53
2022-09-06T21:51:32.727Z,51.29
2022-09-06T21:54:03.607Z,51.53
2022-09-06T21:56:32.659Z,51.50
2022-09-06T21:59:00.382Z,51.27
2022-09-06T22:01:32.120Z,51.42
2022-09-06T22:04:00.494Z,51.31
2022-09-06T22:06:30.005Z,51.65
2022-09-06T22:08:59.152Z,51.83
2022-09-06T22:11:29.208Z,51.69
2022-09-06T22:14:01.516Z,51.55
2022-09-06T22:16:29.689Z,51.53
2022-09-06T22:18:56.850Z,51.53
2022-09-06T22:21:24.742Z,51.88
2022-09-06T22:24:04.231Z,51.76
2022-09-06T22:26:33.647Z,51.63
2022-09-06T22:29:03.208Z,51.92
2022-09-06T22:31:32.200Z,52.08
2022-09-06T22:33:59.914Z,51.86
2022-09-06T22:36:27.769Z,52.07
2022-09-06T22:38:58.955Z,51.92
2022-09-06T22:41:28.118Z,51.92
2022-09-06T22:43:55.369Z,51.80
2022-09-06T22:46:23.445Z,52.18
2022-09-06T22:48:50.592Z,52.06
2022-09-06T22:51:17.883Z,52.10
2022-09-06T22:53:45.058Z,52.19
2022-09-06T22:56:12.280Z,52.23
2022-09-06T22:58:39.436Z,52.33
2022-09-06T23:01:12.580Z,52.61
2022-09-06T23:03:41.086Z,52.38
2022-09-06T23:06:08.768Z,52.19
2022-09-06T23:08:38.308Z,52.28
2022-09-06T23:11:07.885Z,51.96
2022-09-06T23:13:35.169Z,52.23
2022-09-06T23:16:04.479Z,52.40
2022-09-06T23:18:31.610Z,52.56
2022-09-06T23:21:07.801Z,52.75
2022-09-06T23:23:36.395Z,52.62
2022-09-06T23:26:05.286Z,52.29
2022-09-06T23:28:32.611Z,52.23
2022-09-06T23:31:03.087Z,53.04
2022-09-06T23:33:31.578Z,52.62
2022-09-06T23:35:59.180Z,52.91
2022-09-06T23:38:26.296Z,52.92
2022-09-06T23:40:53.451Z,52.89
2022-09-06T23:43:21.324Z,52.67
2022-09-06T23:45:48.455Z,52.88
2022-09-06T23:48:15.506Z,52.88
2022-09-06T23:50:46.081Z,52.85
2022-09-06T23:53:14.635Z,52.61
2022-09-06T23:55:42.156Z,53.00
2022-09-06T23:58:09.816Z,52.78
